Time;durP1;ratioP1;P1;durP2;ratioP2;P2;SDS_P1;SDS_P2;PMS_P1;PMS_P2;Temp;Humidity;BMP_temperature;BMP_pressure;BME280_temperature;BME280_humidity;BME280_pressure;Samples;Min_cycle;Max_cycle;Signal;HPM_P1;HPM_P2
2022/01/21 00:01:52;;;;;;;0.40;0.40;;;0.90;90.20;0.80;96906.00;;;;5012707;28;20429;-83
2022/01/21 00:04:41;;;;;;;0.97;0.67;;;0.90;90.00;0.80;96908.00;;;;5012001;28;20989;-83
2022/01/21 00:07:30;;;;;;;0.30;0.30;;;0.90;90.10;0.70;96920.00;;;;5011946;28;20429;-83
2022/01/21 00:10:19;;;;;;;0.70;0.70;;;1.20;90.90;0.60;96908.00;;;;5011869;28;20435;-83
2022/01/21 00:13:17;;;;;;;1.47;0.77;;;1.00;91.20;0.70;96910.00;;;;5012041;28;21028;-83
2022/01/21 00:16:10;;;;;;;0.80;0.50;;;0.90;90.40;0.70;96910.00;;;;5011381;28;20480;-83
2022/01/21 00:19:06;;;;;;;1.77;0.90;;;1.00;90.50;0.60;96902.00;;;;5011364;28;20425;-83
2022/01/21 00:31:15;;;;;;;0.60;0.60;;;0.80;92.10;0.30;96919.00;;;;5010507;28;20433;-83
2022/01/21 00:34:04;;;;;;;0.93;0.67;;;0.70;92.10;0.30;96922.00;;;;5012987;28;20460;-83
2022/01/21 00:36:53;;;;;;;0.50;0.50;;;0.70;91.80;0.30;96919.00;;;;5012660;28;20838;-82
2022/01/21 00:39:44;;;;;;;0.93;0.87;;;0.70;92.10;0.30;96926.00;;;;5004976;28;20426;-83
2022/01/21 00:42:50;;;;;;;1.13;0.60;;;0.60;91.60;0.20;96927.00;;;;5008238;28;20797;-82
2022/01/21 00:45:38;;;;;;;0.70;0.70;;;0.60;91.50;0.10;96939.00;;;;5003478;28;20806;-82
2022/01/21 00:48:29;;;;;;;0.70;0.70;;;0.50;91.50;0.00;96914.00;;;;5003541;28;20437;-83
2022/01/21 00:51:18;;;;;;;0.73;0.70;;;0.50;91.90;0.10;96925.00;;;;5009887;28;20448;-83
2022/01/21 00:54:07;;;;;;;0.93;0.70;;;0.50;91.20;0.10;96926.00;;;;5012617;28;20978;-83
2022/01/21 00:56:55;;;;;;;0.40;0.40;;;0.40;91.40;0.00;96928.00;;;;5010020;28;20476;-83
2022/01/21 00:59:44;;;;;;;0.43;0.43;;;0.40;91.60;0.00;96933.00;;;;5009659;28;20435;-82
2022/01/21 01:02:33;;;;;;;0.40;0.40;;;0.30;91.60;0.00;96943.00;;;;5010152;28;20451;-82
2022/01/21 01:05:23;;;;;;;0.77;0.77;;;0.30;91.90;-0.10;96948.00;;;;5011501;28;20430;-83
2022/01/21 01:08:12;;;;;;;0.93;0.50;;;0.30;92.20;-0.20;96932.00;;;;5011473;28;20429;-82
2022/01/21 01:20:16;;;;;;;2.07;1.10;;;0.30;92.30;-0.10;96939.00;;;;4999315;28;20432;-83
2022/01/21 01:23:19;;;;;;;0.80;0.80;;;0.30;92.30;-0.10;96944.00;;;;5010824;28;20457;-82
2022/01/21 01:29:15;;;;;;;1.80;0.70;;;0.20;92.10;-0.20;96919.00;;;;5011391;28;20433;-82
2022/01/21 01:32:05;;;;;;;0.53;0.53;;;0.40;92.10;-0.10;96929.00;;;;5009846;28;20429;-82
2022/01/21 01:34:55;;;;;;;0.60;0.60;;;0.20;91.70;-0.10;96916.00;;;;5011152;28;20433;-82
2022/01/21 01:38:11;;;;;;;0.60;0.60;;;0.20;91.60;-0.20;96895.00;;;;5012144;28;20483;-82
2022/01/21 01:41:06;;;;;;;0.73;0.73;;;0.30;92.00;-0.30;96908.00;;;;4997525;28;20460;-82
2022/01/21 01:50:21;;;;;;;2.60;1.80;;;0.10;92.70;-0.40;96901.00;;;;4969941;28;20431;-82
2022/01/21 01:53:10;;;;;;;0.93;0.87;;;0.00;92.70;-0.30;96901.00;;;;4970530;28;20828;-82
2022/01/21 01:56:04;;;;;;;0.80;0.80;;;0.10;92.30;-0.50;96911.00;;;;5005995;28;20441;-82
2022/01/21 01:58:53;;;;;;;0.70;0.70;;;0.00;92.40;-0.50;96914.00;;;;5008976;28;20816;-82
2022/01/21 02:01:42;;;;;;;0.50;0.50;;;0.10;92.50;-0.50;96920.00;;;;5012085;28;20437;-81
2022/01/21 02:04:31;;;;;;;0.70;0.70;;;-0.10;92.40;-0.50;96936.00;;;;5011403;28;20848;-81
2022/01/21 02:07:20;;;;;;;2.40;0.50;;;0.00;92.30;-0.30;96938.00;;;;5012623;28;20432;-81
2022/01/21 02:10:10;;;;;;;0.60;0.50;;;0.00;91.20;0.10;96949.00;;;;5010568;28;20433;-82
2022/01/21 02:13:05;;;;;;;0.73;0.67;;;0.10;90.20;0.10;96942.00;;;;4998062;28;20452;-82
2022/01/21 02:16:04;;;;;;;0.70;0.70;;;0.20;90.80;0.30;96957.00;;;;5010396;28;20808;-82
2022/01/21 02:22:03;;;;;;;0.90;0.50;;;0.40;90.00;0.40;96961.00;;;;5010225;28;20436;-82
2022/01/21 02:24:55;;;;;;;0.33;0.33;;;0.50;90.60;0.40;96962.00;;;;5010523;28;20453;-82
2022/01/21 02:27:46;;;;;;;0.53;0.53;;;0.60;90.00;0.40;96963.00;;;;5011069;28;20963;-82
2022/01/21 02:30:35;;;;;;;0.40;0.40;;;0.60;89.70;0.40;96972.00;;;;5010499;28;20436;-81
2022/01/21 02:33:25;;;;;;;0.40;0.40;;;0.60;89.60;0.40;96965.00;;;;5011282;28;20449;-82
2022/01/21 02:36:15;;;;;;;0.80;0.80;;;0.60;89.20;0.50;96979.00;;;;5009682;28;21176;-82
2022/01/21 02:39:05;;;;;;;1.17;0.50;;;0.70;88.00;0.50;96984.00;;;;5010113;28;20429;-82
2022/01/21 02:41:55;;;;;;;0.50;0.50;;;0.70;88.70;0.40;96971.00;;;;5011167;28;20437;-82
2022/01/21 02:44:44;;;;;;;0.60;0.50;;;0.70;88.80;0.40;96980.00;;;;4995809;28;20808;-82
2022/01/21 02:47:33;;;;;;;2.30;0.67;;;0.70;89.00;0.30;96970.00;;;;5009587;28;20436;-82
2022/01/21 02:50:22;;;;;;;0.70;0.40;;;0.70;89.80;0.20;96976.00;;;;5009499;28;20441;-82
2022/01/21 02:53:23;;;;;;;0.60;0.50;;;0.60;90.40;0.10;96982.00;;;;5010553;28;20445;-82
2022/01/21 02:56:16;;;;;;;0.40;0.40;;;0.50;90.90;0.00;96967.00;;;;5010185;28;20972;-82
2022/01/21 02:59:07;;;;;;;1.37;0.40;;;0.50;91.20;0.00;96975.00;;;;5010805;28;20507;-82
2022/01/21 03:01:56;;;;;;;0.60;0.40;;;0.40;91.40;0.00;96978.00;;;;5009876;28;20441;-82
2022/01/21 03:04:53;;;;;;;0.63;0.53;;;0.40;91.60;-0.10;96970.00;;;;5010112;28;20449;-82
2022/01/21 03:07:42;;;;;;;0.30;0.30;;;0.30;91.80;-0.10;96973.00;;;;5010201;28;20440;-82
2022/01/21 03:10:31;;;;;;;0.40;0.40;;;0.30;92.40;-0.10;96984.00;;;;5009819;28;20432;-82
2022/01/21 03:13:22;;;;;;;0.40;0.40;;;0.20;92.70;-0.10;96990.00;;;;5004308;28;20988;-82
2022/01/21 03:16:11;;;;;;;1.33;0.50;;;0.20;93.30;-0.10;96990.00;;;;4999292;28;20423;-82
2022/01/21 03:19:00;;;;;;;0.50;0.50;;;0.20;93.70;-0.10;97007.00;;;;5011606;28;20481;-82
2022/01/21 03:21:49;;;;;;;0.73;0.63;;;0.20;94.20;-0.10;97008.00;;;;5011643;28;20443;-82
2022/01/21 03:24:38;;;;;;;0.77;0.60;;;0.30;94.60;0.00;97016.00;;;;5012955;28;20981;-82
2022/01/21 03:27:27;;;;;;;0.40;0.40;;;0.20;94.70;0.00;97038.00;;;;5018481;28;20980;-82
2022/01/21 03:30:17;;;;;;;0.40;0.40;;;0.30;95.40;0.10;97035.00;;;;5016988;28;20425;-82
2022/01/21 03:33:06;;;;;;;0.83;0.43;;;0.30;95.60;0.10;97046.00;;;;5016605;28;20461;-82
2022/01/21 03:35:55;;;;;;;2.13;0.60;;;0.30;96.10;0.10;97059.00;;;;5016987;28;20445;-82
2022/01/21 03:38:44;;;;;;;0.50;0.50;;;0.30;96.30;0.10;97058.00;;;;5019513;28;20477;-82
2022/01/21 03:41:33;;;;;;;1.00;0.90;;;0.30;97.10;-0.10;97067.00;;;;5008322;28;20440;-82
2022/01/21 03:44:22;;;;;;;1.23;0.73;;;0.30;99.90;-0.10;97079.00;;;;5013825;28;20465;-82
2022/01/21 03:47:12;;;;;;;1.37;0.83;;;0.30;99.90;-0.10;97078.00;;;;5005446;28;20434;-82
2022/01/21 03:50:19;;;;;;;0.67;0.60;;;0.40;99.90;-0.20;97064.00;;;;5019394;28;20436;-82
2022/01/21 03:53:08;;;;;;;2.33;0.73;;;0.20;99.90;-0.50;97090.00;;;;5019480;28;20460;-82
2022/01/21 03:55:56;;;;;;;5.10;0.60;;;0.10;99.90;-0.50;97083.00;;;;5018202;28;20431;-82
2022/01/21 03:58:46;;;;;;;0.50;0.50;;;0.10;99.90;-0.60;97081.00;;;;5018301;28;20479;-82
2022/01/21 04:01:34;;;;;;;1.93;0.40;;;0.00;99.90;-0.70;97067.00;;;;5018770;28;20433;-82
2022/01/21 04:04:25;;;;;;;0.40;0.40;;;0.10;99.90;-1.00;97062.00;;;;5020007;28;20534;-82
2022/01/21 04:07:13;;;;;;;0.40;0.40;;;-0.20;99.90;-0.80;97080.00;;;;5016086;28;20799;-82
2022/01/21 04:10:02;;;;;;;0.50;0.50;;;-0.30;99.90;-0.90;97059.00;;;;5014348;28;20436;-82
2022/01/21 04:12:51;;;;;;;2.20;0.57;;;-0.30;99.90;-1.00;97060.00;;;;5012838;28;20453;-82
2022/01/21 04:15:40;;;;;;;0.50;0.50;;;-0.20;99.90;-1.10;97052.00;;;;5007025;28;20429;-82
2022/01/21 04:18:30;;;;;;;0.60;0.60;;;-0.40;99.90;-1.30;97064.00;;;;5014692;28;20472;-81
2022/01/21 04:21:21;;;;;;;1.80;0.70;;;-0.40;99.90;-1.20;97058.00;;;;5014915;28;20432;-82
2022/01/21 04:24:10;;;;;;;0.50;0.50;;;-0.40;99.90;-1.10;97056.00;;;;5015322;28;20449;-81
2022/01/21 04:26:59;;;;;;;0.97;0.70;;;-0.50;99.90;-1.30;97060.00;;;;5014203;28;20467;-81
2022/01/21 04:29:48;;;;;;;0.50;0.50;;;-0.50;99.90;-1.20;97072.00;;;;5015348;28;20827;-81
2022/01/21 04:32:37;;;;;;;1.40;0.70;;;-0.50;99.90;-1.20;97094.00;;;;5002441;28;20433;-81
2022/01/21 04:35:26;;;;;;;0.90;0.87;;;-0.60;99.90;-1.10;97093.00;;;;5005879;28;20428;-81
2022/01/21 04:38:20;;;;;;;0.80;0.80;;;-0.60;99.90;-1.20;97097.00;;;;5011236;28;20473;-81
2022/01/21 04:41:25;;;;;;;0.97;0.60;;;-0.60;99.90;-1.20;97104.00;;;;4997899;28;20470;-81
2022/01/21 04:47:20;;;;;;;0.93;0.83;;;-0.60;99.90;-1.00;97114.00;;;;5012270;28;20429;-81
2022/01/21 04:50:13;;;;;;;0.90;0.63;;;-0.60;99.90;-1.20;97124.00;;;;5010474;28;20441;-81
2022/01/21 04:53:02;;;;;;;0.50;0.50;;;-0.60;99.90;-1.20;97113.00;;;;5009414;28;20446;-82
2022/01/21 04:55:52;;;;;;;0.50;0.50;;;-0.60;99.90;-1.20;97136.00;;;;5010274;28;20449;-81
2022/01/21 04:58:41;;;;;;;0.63;0.63;;;-0.50;99.90;-1.10;97130.00;;;;5009431;28;20853;-81
2022/01/21 05:01:30;;;;;;;0.30;0.30;;;-0.50;99.90;-1.00;97140.00;;;;5010135;28;20437;-81
2022/01/21 05:04:19;;;;;;;0.50;0.50;;;-0.60;99.90;-1.00;97149.00;;;;5011701;28;21128;-81
2022/01/21 05:07:11;;;;;;;0.40;0.40;;;-0.50;99.90;-0.90;97147.00;;;;5009455;28;20436;-81
2022/01/21 05:10:02;;;;;;;0.50;0.50;;;-0.30;99.90;-1.10;97155.00;;;;5006120;28;20433;-81
2022/01/21 05:12:52;;;;;;;1.07;0.60;;;-0.40;99.90;-1.10;97165.00;;;;5001275;28;20452;-81
2022/01/21 05:15:59;;;;;;;0.60;0.60;;;-0.50;99.90;-1.00;97175.00;;;;4996169;28;20430;-81
2022/01/21 05:18:48;;;;;;;0.67;0.57;;;-0.40;99.90;-1.00;97176.00;;;;5008316;28;21012;-83
2022/01/21 05:21:37;;;;;;;0.50;0.50;;;-0.40;99.90;-0.80;97189.00;;;;5009641;28;20448;-84
2022/01/21 05:24:26;;;;;;;0.40;0.40;;;-0.10;99.90;-0.70;97189.00;;;;5005305;28;20614;-82
2022/01/21 05:27:14;;;;;;;0.57;0.57;;;-0.40;99.90;-0.80;97190.00;;;;4996946;28;20419;-84
2022/01/21 05:30:07;;;;;;;0.77;0.60;;;-0.30;99.90;-0.90;97212.00;;;;4999540;28;20815;-83
2022/01/21 05:32:56;;;;;;;0.63;0.43;;;-0.40;99.90;-1.10;97199.00;;;;5005628;28;20511;-83
2022/01/21 05:35:45;;;;;;;1.70;0.53;;;-0.30;99.90;-0.70;97224.00;;;;5010553;28;20422;-83
2022/01/21 05:38:34;;;;;;;0.60;0.60;;;-0.30;99.90;-1.00;97207.00;;;;5008469;28;20476;-83
2022/01/21 05:41:24;;;;;;;0.57;0.50;;;-0.20;99.90;-0.90;97204.00;;;;5001955;28;20426;-84
2022/01/21 05:44:18;;;;;;;0.70;0.40;;;0.00;99.90;-0.80;97225.00;;;;5003651;28;20457;-83
2022/01/21 05:47:10;;;;;;;1.00;0.57;;;-0.30;99.90;-0.70;97217.00;;;;5003726;28;20425;-83
2022/01/21 05:49:59;;;;;;;0.43;0.43;;;-0.30;99.90;-0.90;97236.00;;;;5008580;28;20429;-83
2022/01/21 05:52:48;;;;;;;0.40;0.40;;;-0.30;99.90;-1.00;97222.00;;;;4999958;28;20978;-82
2022/01/21 05:55:40;;;;;;;0.40;0.40;;;0.10;98.70;-0.80;97228.00;;;;4999381;28;20418;-83
2022/01/21 05:58:29;;;;;;;0.40;0.40;;;0.70;97.70;-0.80;97244.00;;;;5009640;28;20469;-83
2022/01/21 06:01:18;;;;;;;1.50;0.60;;;0.10;97.30;-0.90;97259.00;;;;4997907;28;20434;-83
2022/01/21 06:04:09;;;;;;;0.33;0.33;;;-0.20;95.00;-1.10;97248.00;;;;5000385;28;20839;-83
2022/01/21 06:06:58;;;;;;;0.50;0.50;;;-0.30;94.60;-1.00;97254.00;;;;5005635;28;20796;-83
2022/01/21 06:09:47;;;;;;;0.40;0.40;;;-0.20;93.80;-1.10;97254.00;;;;5006172;28;20430;-82
2022/01/21 06:12:35;;;;;;;1.60;0.97;;;-0.20;93.90;-1.10;97254.00;;;;4993903;28;20434;-82
2022/01/21 06:15:25;;;;;;;2.80;1.10;;;-0.20;91.40;-1.10;97270.00;;;;5003064;28;20804;-82
2022/01/21 06:18:14;;;;;;;0.43;0.43;;;-0.30;92.50;-1.30;97266.00;;;;5008574;28;20433;-83
2022/01/21 06:21:04;;;;;;;1.23;1.13;;;-0.40;91.50;-1.00;97287.00;;;;5010402;28;20425;-83
2022/01/21 06:23:53;;;;;;;1.37;1.27;;;-0.10;91.90;-1.20;97280.00;;;;5011773;28;20973;-82
2022/01/21 06:26:42;;;;;;;1.60;0.97;;;-0.20;92.10;-1.20;97277.00;;;;5009964;28;20422;-84
2022/01/21 06:29:31;;;;;;;0.40;0.40;;;-0.40;92.50;-1.10;97298.00;;;;5010716;28;20468;-82
2022/01/21 06:32:19;;;;;;;2.93;0.67;;;-0.60;88.80;-1.00;97301.00;;;;5007878;28;20421;-83
2022/01/21 06:35:10;;;;;;;0.63;0.60;;;-0.50;84.20;-0.90;97291.00;;;;5002882;28;20437;-83
2022/01/21 06:38:00;;;;;;;0.70;0.70;;;-0.40;85.10;-1.00;97307.00;;;;5005009;28;20429;-83
2022/01/21 06:40:50;;;;;;;0.50;0.50;;;-0.50;83.80;-0.90;97301.00;;;;4995592;28;20429;-83
2022/01/21 06:43:39;;;;;;;2.20;1.43;;;-0.50;83.20;-1.00;97341.00;;;;5010867;28;20499;-83
2022/01/21 06:46:28;;;;;;;3.20;0.70;;;-0.30;84.40;-1.10;97331.00;;;;5006124;28;20453;-82
2022/01/21 06:49:17;;;;;;;1.03;0.80;;;-0.50;84.60;-1.10;97328.00;;;;5009236;28;20435;-84
2022/01/21 06:52:07;;;;;;;0.80;0.80;;;-0.50;79.40;-1.00;97360.00;;;;5009896;28;20429;-83
2022/01/21 06:54:58;;;;;;;2.93;1.13;;;-0.50;79.60;-1.20;97358.00;;;;5010843;28;20943;-82
2022/01/21 06:57:47;;;;;;;1.73;0.90;;;-0.50;82.70;-1.10;97365.00;;;;5011382;28;20451;-83
2022/01/21 07:00:35;;;;;;;0.57;0.57;;;-0.20;82.90;-1.20;97374.00;;;;5008792;28;20469;-82
2022/01/21 07:03:25;;;;;;;0.70;0.70;;;-0.50;81.40;-1.20;97374.00;;;;5010229;28;20570;-83
2022/01/21 07:06:14;;;;;;;0.80;0.80;;;-0.50;80.20;-1.10;97370.00;;;;5009490;28;20433;-82
2022/01/21 07:09:03;;;;;;;3.43;1.23;;;-0.20;82.60;-1.30;97380.00;;;;5012696;28;20968;-83
2022/01/21 07:11:53;;;;;;;1.67;1.27;;;-0.30;82.20;-1.40;97378.00;;;;5003058;28;20472;-83
2022/01/21 07:14:42;;;;;;;2.93;2.20;;;-0.50;84.40;-1.30;97383.00;;;;5002635;28;20454;-82
2022/01/21 07:17:31;;;;;;;1.17;1.00;;;-0.30;83.10;-0.90;97393.00;;;;5009027;28;20857;-84
2022/01/21 07:20:20;;;;;;;0.47;0.47;;;-0.60;83.70;-0.60;97396.00;;;;4996647;28;20462;-83
2022/01/21 07:23:09;;;;;;;2.50;0.63;;;0.30;84.80;-0.90;97382.00;;;;5008789;28;20457;-84
2022/01/21 07:25:58;;;;;;;0.67;0.57;;;-0.40;83.30;-1.00;97385.00;;;;5006299;28;20425;-83
2022/01/21 07:28:52;;;;;;;0.80;0.70;;;-0.40;83.40;-1.10;97375.00;;;;5007298;28;20442;-84
2022/01/21 07:31:43;;;;;;;0.80;0.50;;;-0.60;81.70;-0.80;97383.00;;;;5008710;28;20425;-82
2022/01/21 07:34:31;;;;;;;0.50;0.50;;;0.10;81.00;-0.60;97392.00;;;;5000938;28;21039;-83
2022/01/21 07:37:20;;;;;;;0.70;0.70;;;-0.30;80.10;-0.60;97392.00;;;;4998280;28;20422;-82
2022/01/21 07:40:11;;;;;;;1.03;0.80;;;0.10;81.50;-0.80;97376.00;;;;5003047;28;20488;-83
2022/01/21 07:43:00;;;;;;;1.23;1.17;;;-0.20;81.50;-0.90;97370.00;;;;5004631;28;20533;-83
2022/01/21 07:45:50;;;;;;;1.37;1.00;;;-0.30;80.60;-1.00;97381.00;;;;5005085;28;20444;-84
2022/01/21 07:48:39;;;;;;;1.47;0.90;;;-0.30;82.10;-0.80;97392.00;;;;5003822;28;20429;-83
2022/01/21 07:51:28;;;;;;;1.10;0.70;;;-0.30;83.40;-1.10;97388.00;;;;5002614;28;20430;-84
2022/01/21 07:54:17;;;;;;;1.70;1.10;;;-0.30;81.70;-0.60;97393.00;;;;4997961;28;21049;-83
2022/01/21 07:57:06;;;;;;;1.37;0.50;;;1.20;83.30;-0.70;97403.00;;;;5007196;28;20687;-82
2022/01/21 07:59:55;;;;;;;1.20;1.00;;;-0.20;80.70;-0.30;97407.00;;;;4995122;28;20492;-84
2022/01/21 08:02:46;;;;;;;4.07;1.20;;;-0.10;81.30;-0.80;97385.00;;;;5007566;28;20453;-84
2022/01/21 08:05:35;;;;;;;1.50;1.33;;;0.00;81.00;-0.70;97398.00;;;;5008527;28;20523;-84
2022/01/21 08:08:26;;;;;;;3.20;1.03;;;0.10;80.10;-0.70;97410.00;;;;5007298;28;20429;-84
2022/01/21 08:11:15;;;;;;;0.67;0.67;;;0.10;81.00;-0.30;97404.00;;;;4999941;28;20484;-85
2022/01/21 08:14:04;;;;;;;2.00;0.63;;;0.20;82.00;-0.70;97405.00;;;;5004125;28;20847;-84
2022/01/21 08:16:54;;;;;;;0.40;0.40;;;0.00;79.80;-0.20;97406.00;;;;5009597;28;20417;-83
2022/01/21 08:19:44;;;;;;;1.57;0.70;;;0.10;80.00;0.10;97406.00;;;;5003274;28;20477;-84
2022/01/21 08:22:33;;;;;;;0.70;0.70;;;0.20;80.50;0.10;97427.00;;;;5011656;28;20942;-84
2022/01/21 08:25:22;;;;;;;1.73;0.73;;;0.30;80.30;0.50;97420.00;;;;5005028;28;20446;-84
2022/01/21 08:28:11;;;;;;;0.83;0.80;;;0.40;80.00;0.50;97434.00;;;;5004320;28;20437;-85
2022/01/21 08:31:00;;;;;;;2.03;0.73;;;0.60;78.40;0.50;97444.00;;;;5011846;28;20996;-83
2022/01/21 08:33:50;;;;;;;3.43;1.30;;;0.80;78.10;0.30;97436.00;;;;5012726;28;20530;-83
2022/01/21 08:36:40;;;;;;;2.97;1.43;;;0.70;77.50;0.20;97444.00;;;;5010892;28;20429;-84
2022/01/21 08:39:29;;;;;;;1.80;1.13;;;0.70;76.60;0.20;97434.00;;;;5011178;28;20455;-83
2022/01/21 08:42:19;;;;;;;4.23;1.50;;;0.70;75.70;-0.30;97439.00;;;;5009746;28;20433;-83
2022/01/21 08:45:10;;;;;;;2.03;1.40;;;0.70;76.10;0.10;97431.00;;;;5002895;28;20429;-84
2022/01/21 08:47:59;;;;;;;4.73;1.20;;;0.70;77.00;0.20;97438.00;;;;4999888;28;20437;-84
2022/01/21 08:50:49;;;;;;;1.17;1.03;;;0.70;75.30;0.70;97435.00;;;;5010772;28;20421;-83
2022/01/21 08:53:41;;;;;;;1.00;0.83;;;0.80;76.10;0.90;97445.00;;;;5011276;28;20480;-83
2022/01/21 08:56:30;;;;;;;4.97;1.43;;;0.90;75.60;0.90;97444.00;;;;5010446;28;20871;-84
2022/01/21 08:59:20;;;;;;;6.13;2.60;;;0.90;74.80;0.60;97433.00;;;;5010404;28;20428;-83
2022/01/21 09:02:09;;;;;;;1.23;1.13;;;1.30;75.10;1.00;97451.00;;;;5009597;28;20934;-83
2022/01/21 09:04:58;;;;;;;1.40;0.50;;;1.20;74.30;1.00;97457.00;;;;5009984;28;20464;-84
2022/01/21 09:07:47;;;;;;;0.93;0.57;;;1.20;72.50;1.00;97447.00;;;;5011068;28;20421;-84
2022/01/21 09:10:38;;;;;;;0.50;0.50;;;1.30;72.70;1.60;97452.00;;;;5007704;28;20865;-84
2022/01/21 09:13:30;;;;;;;1.07;0.70;;;1.40;74.00;1.10;97449.00;;;;5003350;28;20449;-83
2022/01/21 09:16:19;;;;;;;1.20;0.70;;;1.50;70.90;1.30;97456.00;;;;5007882;28;20426;-83
2022/01/21 09:19:08;;;;;;;1.70;0.70;;;1.60;69.80;0.50;97444.00;;;;5011450;28;20448;-82
2022/01/21 09:22:02;;;;;;;2.33;1.20;;;1.60;69.30;0.60;97448.00;;;;5010285;28;20469;-83
2022/01/21 09:24:51;;;;;;;2.07;0.80;;;1.40;70.30;0.60;97452.00;;;;5010853;28;20456;-84
2022/01/21 09:27:41;;;;;;;0.50;0.50;;;1.40;69.40;0.80;97455.00;;;;5010453;28;20449;-84
2022/01/21 09:30:30;;;;;;;0.67;0.67;;;1.30;69.70;0.50;97455.00;;;;5009829;28;20434;-83
2022/01/21 09:33:19;;;;;;;1.07;0.70;;;1.30;69.40;0.70;97457.00;;;;5010768;28;20869;-84
2022/01/21 09:36:09;;;;;;;2.53;0.93;;;1.20;69.70;1.60;97457.00;;;;5008615;28;20436;-84
2022/01/21 09:38:58;;;;;;;0.90;0.70;;;1.60;69.70;1.60;97472.00;;;;5008932;28;20954;-86
2022/01/21 09:41:48;;;;;;;3.53;1.03;;;1.70;69.40;1.50;97465.00;;;;5010280;28;20849;-84
2022/01/21 09:44:39;;;;;;;0.87;0.70;;;1.80;67.70;1.80;97464.00;;;;4997515;28;20453;-84
2022/01/21 09:47:31;;;;;;;1.47;0.90;;;1.80;69.70;2.00;97471.00;;;;5008166;28;20432;-84
2022/01/21 09:50:28;;;;;;;6.20;0.90;;;2.00;68.10;2.20;97474.00;;;;5009419;28;20891;-84
2022/01/21 09:53:19;;;;;;;4.27;1.17;;;2.20;66.80;2.70;97476.00;;;;5011157;28;20454;-85
2022/01/21 09:56:09;;;;;;;1.27;0.90;;;2.40;66.30;2.40;97488.00;;;;5010061;28;20429;-84
2022/01/21 09:58:59;;;;;;;0.77;0.77;;;2.60;65.00;2.50;97475.00;;;;5011024;28;20813;-84
2022/01/21 10:01:52;;;;;;;8.80;0.83;;;2.60;64.30;1.30;97462.00;;;;5010053;28;20861;-83
2022/01/21 10:04:43;;;;;;;0.57;0.50;;;2.50;62.40;1.60;97461.00;;;;5008111;28;20600;-83
2022/01/21 10:07:34;;;;;;;2.23;0.87;;;2.30;61.00;1.20;97456.00;;;;4999864;28;20870;-83
2022/01/21 10:10:23;;;;;;;0.60;0.60;;;2.10;63.30;1.10;97450.00;;;;5007736;28;21017;-83
2022/01/21 10:13:16;;;;;;;0.70;0.70;;;2.00;64.30;1.30;97451.00;;;;5005787;28;20456;-82
2022/01/21 10:16:09;;;;;;;0.60;0.60;;;2.00;64.40;1.60;97457.00;;;;4993179;28;20811;-83
2022/01/21 10:19:05;;;;;;;1.13;0.80;;;1.90;63.30;2.50;97465.00;;;;5006395;28;20429;-83
2022/01/21 10:22:04;;;;;;;1.40;0.73;;;2.20;64.40;2.40;97458.00;;;;4997560;28;20690;-84
2022/01/21 10:24:59;;;;;;;11.10;1.10;;;2.30;64.00;2.60;97448.00;;;;5009526;28;20449;-85
2022/01/21 10:27:48;;;;;;;0.83;0.60;;;2.50;62.40;2.70;97444.00;;;;5011062;28;20421;-84
2022/01/21 10:30:38;;;;;;;0.60;0.40;;;2.60;61.00;2.20;97437.00;;;;5008701;28;20456;-83
2022/01/21 10:33:28;;;;;;;2.40;0.93;;;2.80;59.20;3.00;97442.00;;;;5009530;28;20547;-85
2022/01/21 10:36:24;;;;;;;3.03;1.40;;;2.90;59.10;4.50;97456.00;;;;5007393;28;20436;-84
2022/01/21 10:39:18;;;;;;;1.27;0.90;;;3.60;61.60;4.80;97459.00;;;;5002891;28;20439;-85
2022/01/21 10:42:22;;;;;;;1.57;0.93;;;4.80;57.60;4.90;97438.00;;;;5007790;28;20733;-85
2022/01/21 10:45:12;;;;;;;0.80;0.50;;;5.80;55.40;3.50;97458.00;;;;5002582;28;20199;-85
2022/01/21 10:48:02;;;;;;;8.10;0.90;;;5.90;51.40;4.50;97461.00;;;;4998744;28;20217;-84
2022/01/21 10:51:18;;;;;;;0.90;0.60;;;6.30;51.80;5.60;97459.00;;;;5007051;28;20705;-84
2022/01/21 10:54:18;;;;;;;1.37;0.63;;;6.40;52.00;4.40;97462.00;;;;5010625;28;20616;-85
2022/01/21 10:57:13;;;;;;;2.13;0.80;;;6.60;49.90;5.50;97469.00;;;;5008168;28;20206;-84
2022/01/21 11:00:07;;;;;;;4.10;1.07;;;6.50;50.70;5.40;97440.00;;;;5009546;28;20214;-86
2022/01/21 11:02:56;;;;;;;3.30;0.90;;;6.70;48.70;6.20;97448.00;;;;5008586;28;20714;-84
2022/01/21 11:05:47;;;;;;;2.63;0.50;;;6.90;49.90;6.90;97449.00;;;;5008070;28;20205;-88
2022/01/21 11:08:38;;;;;;;5.90;1.00;;;7.20;49.90;5.60;97436.00;;;;5005732;28;20210;-85
2022/01/21 11:11:26;;;;;;;1.60;0.80;;;7.20;47.10;3.90;97426.00;;;;5002727;28;20208;-85
2022/01/21 11:14:18;;;;;;;2.10;0.70;;;6.20;46.40;4.90;97425.00;;;;5000505;28;20229;-86
2022/01/21 11:17:11;;;;;;;1.03;0.50;;;6.10;47.70;4.90;97416.00;;;;5002144;28;20206;-86
2022/01/21 11:20:16;;;;;;;2.77;0.70;;;6.20;48.20;6.50;97441.00;;;;4998405;28;20194;-85
2022/01/21 11:23:06;;;;;;;2.50;0.80;;;6.40;49.10;6.60;97432.00;;;;5005491;28;20222;-85
2022/01/21 11:26:00;;;;;;;0.63;0.50;;;6.90;48.40;5.90;97398.00;;;;4998692;28;20194;-85
2022/01/21 11:32:48;;;;;;;1.13;0.60;;;6.80;46.50;5.90;97466.00;;;;4925183;29;20854;-85
2022/01/21 11:35:38;;;;;;;2.80;0.77;;;6.60;46.50;6.10;97438.00;;;;4994984;28;20214;-85
2022/01/21 11:38:29;;;;;;;0.67;0.33;;;6.70;45.60;3.60;97405.00;;;;4996523;28;20687;-85
2022/01/21 11:41:19;;;;;;;1.03;0.93;;;6.20;45.60;5.70;97416.00;;;;4995444;28;20225;-85
2022/01/21 11:44:12;;;;;;;0.60;0.50;;;6.20;47.40;6.80;97422.00;;;;5006009;28;20236;-85
2022/01/21 11:47:14;;;;;;;2.70;0.60;;;6.60;47.50;6.60;97451.00;;;;5012145;28;20573;-86
2022/01/21 11:50:05;;;;;;;0.33;0.33;;;7.20;46.70;5.50;97432.00;;;;5012499;28;20950;-86
2022/01/21 11:52:54;;;;;;;2.27;0.50;;;7.40;44.90;4.40;97388.00;;;;5006479;28;20222;-85
2022/01/21 11:55:47;;;;;;;1.90;0.50;;;6.90;44.20;5.00;97360.00;;;;5011270;28;20209;-85
2022/01/21 11:58:37;;;;;;;1.60;0.63;;;6.70;44.80;4.90;97389.00;;;;5011440;28;20648;-86
2022/01/21 12:01:35;;;;;;;6.23;1.07;;;6.40;44.80;5.50;97400.00;;;;5013845;28;20212;-86
2022/01/21 12:04:44;;;;;;;4.83;0.80;;;6.40;45.60;7.50;97397.00;;;;5014547;28;20256;-85
2022/01/21 12:07:59;;;;;;;1.60;0.70;;;6.90;46.10;8.30;97399.00;;;;5015546;28;20202;-85
2022/01/21 12:10:48;;;;;;;3.40;1.00;;;7.70;45.80;6.40;97400.00;;;;5007082;28;20213;-85
2022/01/21 12:13:38;;;;;;;17.13;2.37;;;8.30;44.10;8.40;97382.00;;;;5025948;28;20234;-85
2022/01/21 12:16:55;;;;;;;1.43;0.40;;;8.60;44.40;4.50;97342.00;;;;5016267;28;20202;-85
2022/01/21 12:19:44;;;;;;;0.90;0.80;;;7.90;42.70;3.70;97326.00;;;;5012786;28;20205;-85
2022/01/21 12:22:33;;;;;;;4.33;0.70;;;6.10;45.20;3.80;97372.00;;;;5015030;28;20684;-84
2022/01/21 12:25:22;;;;;;;1.70;0.73;;;5.40;45.90;4.20;97330.00;;;;5019150;28;20533;-83
2022/01/21 12:28:20;;;;;;;1.37;0.40;;;5.10;46.70;4.00;97329.00;;;;5017072;28;20210;-86
2022/01/21 12:31:18;;;;;;;7.93;0.97;;;5.20;46.40;3.00;97306.00;;;;5013438;28;20231;-83
2022/01/21 12:34:10;;;;;;;0.70;0.60;;;5.20;46.40;3.80;97321.00;;;;5010237;28;20222;-83
2022/01/21 12:37:07;;;;;;;1.03;0.60;;;5.20;46.70;4.80;97315.00;;;;5001106;28;20214;-83
2022/01/21 12:39:56;;;;;;;2.97;1.00;;;5.50;47.30;4.90;97308.00;;;;5010187;28;20203;-84
2022/01/21 12:42:45;;;;;;;1.33;0.50;;;6.00;46.90;6.70;97321.00;;;;5019024;28;20205;-84
2022/01/21 12:45:33;;;;;;;2.50;0.50;;;6.70;46.80;7.30;97325.00;;;;5018875;28;20217;-85
2022/01/21 12:48:33;;;;;;;1.40;0.60;;;7.30;45.90;8.30;97326.00;;;;5018037;28;20206;-85
2022/01/21 12:51:44;;;;;;;0.83;0.67;;;8.00;45.60;9.80;97334.00;;;;5015874;28;20204;-87
2022/01/21 12:57:47;;;;;;;5.77;0.80;;;10.00;43.00;10.50;97320.00;;;;5019760;28;20205;-86
2022/01/21 13:00:37;;;;;;;1.70;0.53;;;10.50;43.70;7.80;97290.00;;;;5015050;28;20206;-85
2022/01/21 13:03:33;;;;;;;1.80;0.70;;;10.70;41.80;5.50;97336.00;;;;5013009;28;20248;-83
2022/01/21 13:06:37;;;;;;;2.07;1.67;;;8.60;42.60;4.00;97270.00;;;;5014746;28;20216;-84
2022/01/21 13:10:02;;;;;;;7.73;0.97;;;6.90;44.70;4.50;97278.00;;;;5012453;28;20199;-84
2022/01/21 13:13:12;;;;;;;0.83;0.50;;;6.50;45.90;3.40;97284.00;;;;5002324;28;20630;-90
2022/01/21 13:16:01;;;;;;;3.90;2.03;;;5.50;46.90;4.20;97246.00;;;;5010902;28;20651;-83
2022/01/21 13:18:52;;;;;;;3.83;2.33;;;5.10;48.20;4.40;97264.00;;;;5012801;28;20225;-85
2022/01/21 13:21:47;;;;;;;3.53;1.93;;;5.20;48.20;4.80;97289.00;;;;5020344;28;20212;-84
2022/01/21 13:24:38;;;;;;;2.73;1.20;;;5.50;47.80;6.60;97335.00;;;;5022820;28;20538;-84
2022/01/21 13:27:29;;;;;;;5.17;2.47;;;6.10;47.50;5.70;97264.00;;;;5019115;28;20202;-84
2022/01/21 13:30:22;;;;;;;4.07;1.50;;;6.60;46.70;4.90;97261.00;;;;5020936;28;20202;-84
2022/01/21 13:33:13;;;;;;;2.60;1.47;;;6.50;46.20;4.70;97254.00;;;;5018400;28;20253;-84
2022/01/21 13:36:04;;;;;;;2.73;1.60;;;6.40;46.00;4.00;97232.00;;;;5013791;28;20210;-85